createdAt,value
2023-11-17T00:07:12.704Z,2.49
2023-11-17T00:15:37.769Z,2.43
2023-11-17T00:24:00.972Z,2.40
2023-11-17T00:32:26.513Z,2.37
2023-11-17T00:40:52.785Z,2.32
2023-11-17T00:49:18.203Z,2.25
2023-11-17T00:57:44.097Z,2.18
2023-11-17T01:06:09.069Z,2.11
2023-11-17T01:14:33.352Z,2.10
2023-11-17T01:23:02.798Z,2.10
2023-11-17T01:31:27.454Z,2.12
2023-11-17T01:39:52.497Z,2.15
2023-11-17T01:48:17.906Z,2.17
2023-11-17T01:56:46.793Z,2.19
2023-11-17T02:05:31.804Z,2.20
2023-11-17T02:14:01.868Z,2.20
2023-11-17T02:22:31.652Z,2.20
2023-11-17T02:31:13.672Z,2.19
2023-11-17T02:39:40.557Z,2.20
2023-11-17T02:48:17.699Z,2.20
2023-11-17T02:56:48.259Z,2.15
2023-11-17T03:05:17.410Z,2.12
2023-11-17T03:13:41.961Z,2.10
2023-11-17T03:22:08.220Z,2.10
2023-11-17T03:30:34.365Z,2.10
2023-11-17T03:39:02.233Z,2.09
2023-11-17T03:47:29.234Z,2.05
2023-11-17T03:55:55.584Z,2.01
2023-11-17T04:04:20.872Z,1.96
2023-11-17T04:12:47.229Z,1.91
2023-11-17T04:21:16.239Z,1.86
2023-11-17T04:29:40.840Z,1.83
2023-11-17T04:38:04.404Z,1.80
2023-11-17T04:46:27.905Z,1.78
2023-11-17T04:54:51.855Z,1.77
2023-11-17T05:03:20.911Z,1.73
2023-11-17T05:11:46.348Z,1.73
2023-11-17T05:20:21.286Z,1.75
2023-11-17T05:28:46.990Z,1.73
2023-11-17T05:37:12.230Z,1.66
2023-11-17T05:45:38.201Z,1.61
2023-11-17T05:54:02.921Z,1.58
2023-11-17T06:02:29.519Z,1.57
2023-11-17T06:10:52.893Z,1.54
2023-11-17T06:19:21.649Z,1.52
2023-11-17T06:27:47.628Z,1.48
2023-11-17T06:36:14.156Z,1.45
2023-11-17T06:44:38.376Z,1.44
2023-11-17T06:53:01.534Z,1.44
2023-11-17T07:01:26.773Z,1.46
2023-11-17T07:09:50.804Z,1.47
2023-11-17T07:18:18.625Z,1.47
2023-11-17T07:26:47.446Z,1.46
2023-11-17T07:35:15.427Z,1.49
2023-11-17T07:43:42.708Z,1.48
2023-11-17T07:52:07.220Z,1.47
2023-11-17T08:00:33.014Z,1.45
2023-11-17T08:09:01.394Z,1.41
2023-11-17T08:17:26.034Z,1.34
2023-11-17T08:25:56.514Z,1.35
2023-11-17T08:34:20.234Z,1.34
2023-11-17T08:42:45.398Z,1.39
2023-11-17T08:51:10.166Z,1.39
2023-11-17T08:59:39.022Z,1.34
2023-11-17T09:08:08.892Z,1.38
2023-11-17T09:16:43.146Z,1.38
2023-11-17T09:25:35.529Z,1.38
2023-11-17T09:34:10.997Z,1.41
2023-11-17T09:42:35.962Z,1.39
2023-11-17T10:00:21.976Z,1.45
2023-11-17T10:08:52.003Z,1.45
2023-11-17T10:17:40.283Z,1.41
2023-11-17T10:26:24.818Z,1.34
2023-11-17T10:35:28.033Z,1.23
2023-11-17T10:44:31.950Z,1.15
2023-11-17T10:53:22.600Z,1.10
2023-11-17T11:02:27.496Z,1.08
2023-11-17T11:20:25.390Z,1.11
2023-11-17T11:28:48.763Z,0.97
2023-11-17T11:37:50.812Z,0.83
2023-11-17T11:46:25.442Z,0.76
2023-11-17T11:54:49.049Z,0.77
2023-11-17T12:03:16.135Z,0.79
2023-11-17T12:11:47.221Z,0.76
2023-11-17T12:20:20.672Z,0.66
2023-11-17T12:28:47.022Z,0.59
2023-11-17T12:37:10.987Z,0.50
2023-11-17T12:45:34.860Z,0.48
2023-11-17T12:54:06.681Z,0.48
2023-11-17T13:02:40.908Z,0.48
2023-11-17T13:11:13.392Z,0.50
2023-11-17T13:20:01.285Z,0.51
2023-11-17T13:28:29.025Z,0.54
2023-11-17T13:36:52.558Z,0.57
2023-11-17T13:45:26.477Z,0.57
2023-11-17T13:53:53.726Z,0.55
2023-11-17T14:02:20.183Z,0.49
2023-11-17T14:10:51.741Z,0.44
2023-11-17T14:39:14.208Z,0.40
2023-11-17T14:48:21.936Z,0.41
2023-11-17T14:56:58.546Z,0.40
2023-11-17T15:05:24.730Z,0.38
2023-11-17T15:14:06.681Z,0.31
2023-11-17T15:23:10.147Z,0.27
2023-11-17T15:34:39.792Z,0.27
2023-11-17T15:43:08.783Z,0.28
2023-11-17T15:51:34.184Z,0.31
2023-11-17T15:59:58.683Z,0.26
2023-11-17T16:08:29.261Z,0.24
2023-11-17T16:16:55.289Z,0.26
2023-11-17T16:25:30.909Z,0.23
2023-11-17T16:34:11.819Z,0.13
2023-11-17T16:43:31.663Z,0.04
2023-11-17T16:53:05.559Z,-0.05
2023-11-17T17:14:21.590Z,-0.04
2023-11-17T17:23:08.086Z,-0.03
2023-11-17T17:31:32.038Z,-0.05
2023-11-17T17:40:10.089Z,-0.10
2023-11-17T17:48:40.538Z,-0.13
2023-11-17T17:58:09.625Z,-0.13
2023-11-17T18:19:01.475Z,0.06
2023-11-17T18:28:14.343Z,0.10
2023-11-17T18:37:19.362Z,0.10
2023-11-17T18:46:34.490Z,0.03
2023-11-17T18:55:52.624Z,0.02
2023-11-17T19:04:20.076Z,-0.01
2023-11-17T19:12:45.845Z,0.02
2023-11-17T19:21:10.566Z,0.01
2023-11-17T19:29:45.957Z,0.00
2023-11-17T19:38:08.918Z,-0.06
2023-11-17T19:46:32.816Z,-0.11
2023-11-17T19:55:05.278Z,-0.13
2023-11-17T20:03:30.953Z,-0.17
2023-11-17T20:11:58.712Z,-0.17
2023-11-17T20:20:29.314Z,-0.15
2023-11-17T20:28:53.034Z,-0.11
2023-11-17T20:37:18.597Z,-0.07
2023-11-17T20:46:05.591Z,-0.00
2023-11-17T20:54:31.049Z,0.02
2023-11-17T21:02:57.026Z,0.03
2023-11-17T21:11:23.430Z,0.01
2023-11-17T21:19:46.259Z,-0.03
2023-11-17T21:28:10.273Z,-0.06
2023-11-17T21:36:34.749Z,-0.03
2023-11-17T21:44:58.145Z,-0.03
2023-11-17T21:53:21.240Z,-0.03
2023-11-17T22:01:44.873Z,0.01
2023-11-17T22:10:09.912Z,0.01
2023-11-17T22:18:36.001Z,0.00
2023-11-17T22:26:58.496Z,-0.02
2023-11-17T22:35:24.002Z,-0.05
2023-11-17T22:43:46.846Z,-0.09
2023-11-17T22:52:14.251Z,-0.09
2023-11-17T23:00:39.694Z,-0.08
2023-11-17T23:09:06.084Z,-0.12
2023-11-17T23:17:29.662Z,-0.14
2023-11-17T23:25:54.181Z,-0.14
2023-11-17T23:34:20.725Z,-0.18
2023-11-17T23:42:49.218Z,-0.25
